HEAX 230700Z 32008KT 9999 SCT020 27/18 Q1012 NOSIG
From batch tds/metars/production/2022/9/23/h07_m55_metars.cache.csv.gz
Observed at (9 days ago)
Identifier HEAX
talk